createdAt,value
2023-05-19T00:02:09.154Z,3.03
2023-05-19T00:04:54.831Z,2.55
2023-05-19T00:07:40.249Z,2.90
2023-05-19T00:10:30.372Z,2.85
2023-05-19T00:13:15.905Z,2.50
2023-05-19T00:16:01.175Z,2.70
2023-05-19T00:18:47.480Z,2.60
2023-05-19T00:21:32.822Z,2.65
2023-05-19T00:24:17.884Z,2.70
2023-05-19T00:27:02.803Z,2.97
2023-05-19T00:29:47.803Z,3.10
2023-05-19T00:32:32.630Z,2.55
2023-05-19T00:35:18.241Z,3.00
2023-05-19T00:38:03.426Z,2.60
2023-05-19T00:40:48.371Z,2.90
2023-05-19T00:43:36.499Z,2.92
2023-05-19T00:46:22.857Z,2.85
2023-05-19T00:49:08.219Z,3.50
2023-05-19T00:51:54.384Z,3.78
2023-05-19T00:54:39.412Z,3.00
2023-05-19T00:57:24.421Z,2.50
2023-05-19T01:00:11.190Z,2.50
2023-05-19T01:02:56.986Z,3.05
2023-05-19T01:05:45.064Z,2.83
2023-05-19T01:08:33.920Z,2.72
2023-05-19T01:11:19.028Z,2.58
2023-05-19T01:14:03.904Z,2.85
2023-05-19T01:16:58.264Z,2.90
2023-05-19T01:20:12.331Z,2.75
2023-05-19T01:23:16.691Z,2.70
2023-05-19T01:26:16.407Z,3.00
2023-05-19T01:29:24.711Z,2.70
2023-05-19T01:32:12.166Z,3.00
2023-05-19T01:34:58.147Z,2.67
2023-05-19T01:37:45.267Z,3.10
2023-05-19T01:40:31.618Z,2.78
2023-05-19T01:43:19.689Z,3.22
2023-05-19T01:46:05.543Z,3.20
2023-05-19T01:48:52.552Z,3.20
2023-05-19T01:51:38.314Z,3.28
2023-05-19T01:54:23.738Z,3.85
2023-05-19T01:57:38.359Z,3.35
2023-05-19T02:00:54.035Z,3.22
2023-05-19T02:04:00.716Z,3.10
2023-05-19T02:07:01.583Z,3.05
2023-05-19T02:10:04.249Z,3.45
2023-05-19T02:12:53.180Z,3.40
2023-05-19T02:15:42.122Z,3.00
2023-05-19T02:18:29.830Z,3.50
2023-05-19T02:21:14.940Z,4.05
2023-05-19T02:24:01.284Z,3.83
2023-05-19T02:26:46.413Z,3.22
2023-05-19T02:29:35.439Z,3.50
2023-05-19T02:32:21.104Z,3.10
2023-05-19T02:35:06.714Z,3.05
2023-05-19T02:37:51.571Z,3.70
2023-05-19T02:40:36.342Z,3.83
2023-05-19T02:43:21.262Z,3.20
2023-05-19T02:46:06.398Z,3.47
2023-05-19T02:48:52.113Z,2.97
2023-05-19T02:51:37.522Z,2.95
2023-05-19T02:54:22.341Z,3.60
2023-05-19T02:57:08.009Z,3.75
2023-05-19T02:59:52.753Z,3.15
2023-05-19T03:02:37.727Z,2.90
2023-05-19T03:05:22.994Z,3.80
2023-05-19T03:08:07.937Z,3.47
2023-05-19T03:10:53.115Z,4.45
2023-05-19T03:13:37.828Z,3.10
2023-05-19T03:16:22.810Z,3.00
2023-05-19T03:19:08.077Z,3.10
2023-05-19T03:21:53.086Z,3.72
2023-05-19T03:24:37.947Z,4.20
2023-05-19T03:27:23.257Z,3.25
2023-05-19T03:30:08.989Z,3.03
2023-05-19T03:32:54.170Z,3.08
2023-05-19T03:35:39.824Z,3.17
2023-05-19T03:38:24.957Z,3.20
2023-05-19T03:41:10.486Z,3.30
2023-05-19T03:43:55.320Z,3.88
2023-05-19T03:46:40.759Z,3.70
2023-05-19T03:49:25.605Z,3.30
2023-05-19T03:52:10.890Z,3.75
2023-05-19T03:54:57.530Z,3.20
2023-05-19T03:57:44.578Z,3.22
2023-05-19T04:00:29.877Z,3.30
2023-05-19T04:03:15.269Z,3.17
2023-05-19T04:06:00.429Z,3.17
2023-05-19T04:08:45.307Z,3.45
2023-05-19T04:11:29.982Z,3.60
2023-05-19T04:14:14.753Z,3.70
2023-05-19T04:16:59.885Z,3.33
2023-05-19T04:19:45.469Z,3.53
2023-05-19T04:22:30.288Z,4.75
2023-05-19T04:25:15.463Z,3.70
2023-05-19T04:28:01.281Z,3.30
2023-05-19T04:30:46.580Z,3.95
2023-05-19T04:33:33.898Z,3.33
2023-05-19T04:36:21.344Z,3.47
2023-05-19T04:41:57.638Z,3.28
2023-05-19T04:44:42.445Z,3.53
2023-05-19T04:47:27.997Z,4.00
2023-05-19T04:50:14.152Z,3.47
2023-05-19T04:52:59.263Z,2.90
2023-05-19T04:55:45.212Z,3.28
2023-05-19T04:58:30.450Z,3.53
2023-05-19T05:01:15.735Z,3.67
2023-05-19T05:04:02.984Z,3.40
2023-05-19T05:06:48.734Z,3.20
2023-05-19T05:09:34.152Z,3.38
2023-05-19T05:12:19.809Z,3.42
2023-05-19T05:15:06.861Z,2.97
2023-05-19T05:17:52.187Z,3.13
2023-05-19T05:20:37.743Z,3.13
2023-05-19T05:23:22.741Z,3.15
2023-05-19T05:26:18.701Z,2.97
2023-05-19T05:29:04.311Z,3.20
2023-05-19T05:31:49.517Z,2.60
2023-05-19T05:34:36.299Z,3.58
2023-05-19T05:37:21.367Z,3.13
2023-05-19T05:40:07.323Z,2.88
2023-05-19T05:42:52.296Z,2.78
2023-05-19T05:45:38.192Z,2.80
2023-05-19T05:48:23.226Z,2.65
2023-05-19T05:51:09.297Z,2.55
2023-05-19T05:53:55.896Z,2.50
2023-05-19T05:56:42.687Z,2.40
2023-05-19T05:59:28.029Z,2.78
2023-05-19T06:02:14.023Z,2.90
2023-05-19T06:04:59.325Z,3.00
2023-05-19T06:07:46.573Z,3.00
2023-05-19T06:10:32.756Z,2.45
2023-05-19T06:13:22.847Z,2.38
2023-05-19T06:16:08.009Z,2.53
2023-05-19T06:18:52.899Z,2.70
2023-05-19T06:21:38.153Z,2.58
2023-05-19T06:24:23.102Z,2.45
2023-05-19T06:27:08.357Z,2.22
2023-05-19T06:29:53.797Z,2.67
2023-05-19T06:32:39.314Z,2.47
2023-05-19T06:35:24.804Z,2.60
2023-05-19T06:38:10.393Z,2.65
2023-05-19T06:40:55.524Z,2.30
2023-05-19T06:43:40.388Z,2.88
2023-05-19T06:46:25.199Z,2.30
2023-05-19T06:49:11.294Z,2.60
2023-05-19T06:51:57.485Z,2.83
2023-05-19T06:54:42.393Z,2.20
2023-05-19T06:57:27.491Z,2.40
2023-05-19T07:00:14.614Z,2.42
2023-05-19T07:03:02.505Z,2.25
2023-05-19T07:05:47.859Z,2.50
2023-05-19T07:08:32.746Z,2.72
2023-05-19T07:11:17.872Z,2.33
2023-05-19T07:14:03.046Z,2.50
2023-05-19T07:16:47.985Z,2.60
2023-05-19T07:19:33.108Z,2.28
2023-05-19T07:22:18.215Z,2.72
2023-05-19T07:25:03.779Z,2.30
2023-05-19T07:27:49.552Z,2.70
2023-05-19T07:30:34.886Z,2.58
2023-05-19T07:33:20.667Z,2.10
2023-05-19T07:36:05.903Z,2.92
2023-05-19T07:38:51.547Z,1.92
2023-05-19T07:41:36.732Z,2.22
2023-05-19T07:44:22.614Z,2.00
2023-05-19T07:47:07.734Z,2.70
2023-05-19T07:49:52.859Z,2.20
2023-05-19T07:52:37.766Z,2.35
2023-05-19T07:55:33.512Z,2.03
2023-05-19T07:58:19.703Z,1.95
2023-05-19T08:01:05.856Z,2.15
2023-05-19T08:03:51.339Z,2.58
2023-05-19T08:06:36.244Z,2.45
2023-05-19T08:09:21.215Z,2.25
2023-05-19T08:12:06.088Z,2.42
2023-05-19T08:14:51.254Z,2.60
2023-05-19T08:17:36.577Z,2.35
2023-05-19T08:20:22.737Z,2.10
2023-05-19T08:23:07.917Z,2.53
2023-05-19T08:25:52.784Z,2.22
2023-05-19T08:28:37.763Z,2.85
2023-05-19T08:31:22.672Z,2.40
2023-05-19T08:34:07.845Z,3.03
2023-05-19T08:36:53.386Z,2.50
2023-05-19T08:39:38.613Z,2.40
2023-05-19T08:42:23.677Z,2.40
2023-05-19T08:45:09.383Z,3.60
2023-05-19T08:47:54.712Z,2.67
2023-05-19T08:50:44.315Z,2.22
2023-05-19T08:53:36.714Z,2.55
2023-05-19T08:56:24.121Z,2.30
2023-05-19T08:59:09.188Z,2.30
2023-05-19T09:01:55.596Z,1.83
2023-05-19T09:04:41.886Z,2.10
2023-05-19T09:07:27.851Z,2.35
2023-05-19T09:10:14.743Z,2.25
2023-05-19T09:13:00.133Z,2.10
2023-05-19T09:15:45.851Z,1.92
2023-05-19T09:18:31.377Z,2.00
2023-05-19T09:21:17.050Z,2.25
2023-05-19T09:24:06.360Z,1.80
2023-05-19T09:26:51.448Z,2.28
2023-05-19T09:29:36.423Z,2.13
2023-05-19T09:32:27.613Z,2.50
2023-05-19T09:35:13.660Z,2.00
2023-05-19T09:37:59.068Z,1.85
2023-05-19T09:40:44.032Z,1.60
2023-05-19T09:43:36.374Z,1.85
2023-05-19T09:46:28.745Z,2.00
2023-05-19T09:49:14.279Z,2.00
2023-05-19T09:52:03.598Z,2.53
2023-05-19T09:54:48.782Z,2.05
2023-05-19T09:57:38.600Z,2.40
2023-05-19T10:00:23.873Z,2.10
2023-05-19T10:03:10.330Z,2.17
2023-05-19T10:05:55.678Z,1.92
2023-05-19T10:08:43.306Z,2.00
2023-05-19T10:11:30.071Z,1.77
2023-05-19T10:14:15.791Z,1.88
2023-05-19T10:17:00.747Z,1.63
2023-05-19T10:19:48.196Z,1.60
2023-05-19T10:22:34.861Z,1.70
2023-05-19T10:25:20.083Z,1.98
2023-05-19T10:28:11.375Z,1.90
2023-05-19T10:31:00.323Z,1.90
2023-05-19T10:33:59.358Z,2.20
2023-05-19T10:37:18.225Z,1.70
2023-05-19T10:40:20.000Z,1.80
2023-05-19T10:43:33.133Z,2.30
2023-05-19T10:46:19.320Z,1.95
2023-05-19T10:49:04.229Z,2.53
2023-05-19T10:51:49.794Z,1.67
2023-05-19T10:54:47.377Z,2.05
2023-05-19T10:57:34.584Z,2.13
2023-05-19T11:03:17.666Z,1.80
2023-05-19T11:06:36.044Z,1.73
2023-05-19T11:09:37.855Z,2.08
2023-05-19T11:12:25.488Z,1.83
2023-05-19T11:15:13.813Z,2.00
2023-05-19T11:18:01.693Z,2.50
2023-05-19T11:20:57.953Z,1.88
2023-05-19T11:23:43.982Z,1.60
2023-05-19T11:26:45.942Z,1.83
2023-05-19T11:29:32.861Z,1.80
2023-05-19T11:32:26.628Z,1.70
2023-05-19T11:35:11.600Z,1.80
2023-05-19T11:37:57.508Z,1.65
2023-05-19T11:40:43.410Z,1.75
2023-05-19T11:43:28.557Z,1.88
2023-05-19T11:46:13.883Z,1.60
2023-05-19T11:49:01.325Z,1.85
2023-05-19T11:51:46.860Z,1.60
2023-05-19T11:54:36.702Z,1.85
2023-05-19T11:57:22.415Z,2.35
2023-05-19T12:00:09.334Z,1.70
2023-05-19T12:02:55.042Z,1.90
2023-05-19T12:05:47.756Z,1.80
2023-05-19T12:08:33.182Z,2.40
2023-05-19T12:11:20.053Z,2.00
2023-05-19T12:14:05.861Z,1.70
2023-05-19T12:16:50.853Z,1.52
2023-05-19T12:19:36.799Z,1.65
2023-05-19T12:22:22.451Z,1.90
2023-05-19T12:25:08.531Z,1.52
2023-05-19T12:28:02.921Z,1.90
2023-05-19T12:30:51.916Z,1.70
2023-05-19T12:33:37.454Z,1.75
2023-05-19T12:36:24.291Z,2.03
2023-05-19T12:39:10.064Z,1.98
2023-05-19T12:42:04.490Z,1.50
2023-05-19T12:44:52.334Z,2.17
2023-05-19T12:47:37.209Z,1.67
2023-05-19T12:50:29.766Z,1.95
2023-05-19T12:53:15.709Z,2.15
2023-05-19T12:56:00.893Z,1.90
2023-05-19T12:58:46.104Z,1.80
2023-05-19T13:01:31.584Z,1.60
2023-05-19T13:04:17.424Z,1.98
2023-05-19T13:07:02.574Z,1.88
2023-05-19T13:09:48.226Z,1.63
2023-05-19T13:12:33.524Z,1.85
2023-05-19T13:15:19.082Z,2.13
2023-05-19T13:18:07.167Z,1.70
2023-05-19T13:20:52.990Z,2.40
2023-05-19T13:23:38.417Z,2.55
2023-05-19T13:26:23.596Z,2.17
2023-05-19T13:29:12.257Z,2.20
2023-05-19T13:31:58.109Z,3.20
2023-05-19T13:34:46.712Z,2.20
2023-05-19T13:37:31.596Z,1.75
2023-05-19T13:40:17.757Z,1.75
2023-05-19T13:43:03.482Z,1.90
2023-05-19T13:45:48.948Z,1.80
2023-05-19T13:48:33.713Z,1.98
2023-05-19T13:51:18.662Z,2.00
2023-05-19T13:54:03.425Z,1.70
2023-05-19T13:56:49.648Z,1.70
2023-05-19T13:59:36.023Z,2.03
2023-05-19T14:02:24.252Z,1.73
2023-05-19T14:05:10.257Z,1.60
2023-05-19T14:07:55.411Z,1.70
2023-05-19T14:10:40.318Z,2.00
2023-05-19T14:13:33.059Z,1.90
2023-05-19T14:16:22.806Z,1.60
2023-05-19T14:19:08.153Z,1.90
2023-05-19T14:21:53.021Z,2.03
2023-05-19T14:24:37.988Z,1.63
2023-05-19T14:27:22.829Z,1.92
2023-05-19T14:30:08.860Z,1.67
2023-05-19T14:32:54.357Z,1.70
2023-05-19T14:35:41.062Z,1.50
2023-05-19T14:38:27.622Z,1.60
2023-05-19T14:41:13.551Z,1.92
2023-05-19T14:43:58.501Z,1.90
2023-05-19T14:46:43.787Z,1.70
2023-05-19T14:49:28.542Z,1.83
2023-05-19T14:52:13.631Z,1.80
2023-05-19T14:54:58.548Z,1.80
2023-05-19T14:57:43.862Z,1.70
2023-05-19T15:00:31.622Z,1.80
2023-05-19T15:03:17.472Z,2.10
2023-05-19T15:06:02.956Z,1.80
2023-05-19T15:08:47.844Z,1.55
2023-05-19T15:11:33.165Z,1.80
2023-05-19T15:14:18.072Z,1.67
2023-05-19T15:17:03.088Z,1.70
2023-05-19T15:19:48.625Z,1.80
2023-05-19T15:22:34.034Z,1.85
2023-05-19T15:25:18.984Z,1.67
2023-05-19T15:28:04.228Z,2.13
2023-05-19T15:30:49.266Z,1.77
2023-05-19T15:33:34.804Z,1.70
2023-05-19T15:36:19.872Z,1.83
2023-05-19T15:39:06.744Z,1.60
2023-05-19T15:44:36.710Z,1.70
2023-05-19T15:47:21.800Z,1.92
2023-05-19T15:50:08.814Z,1.80
2023-05-19T15:52:56.750Z,1.50
2023-05-19T15:55:44.553Z,1.60
2023-05-19T15:58:41.336Z,1.70
2023-05-19T16:01:35.238Z,1.80
2023-05-19T16:04:22.780Z,1.73
2023-05-19T16:07:08.707Z,1.40
2023-05-19T16:09:53.803Z,1.40
2023-05-19T16:12:39.966Z,1.80
2023-05-19T16:15:27.318Z,2.10
2023-05-19T16:18:16.014Z,1.92
2023-05-19T16:21:01.676Z,1.50
2023-05-19T16:23:46.560Z,1.80
2023-05-19T16:26:37.058Z,1.75
2023-05-19T16:29:22.608Z,1.83
2023-05-19T16:32:07.750Z,1.60
2023-05-19T16:34:54.119Z,1.50
2023-05-19T16:37:39.330Z,1.83
2023-05-19T16:40:33.785Z,1.70
2023-05-19T16:46:24.014Z,2.92
2023-05-19T16:49:12.869Z,1.85
2023-05-19T16:51:57.966Z,1.60
2023-05-19T16:54:42.984Z,1.58
2023-05-19T16:57:28.798Z,1.75
2023-05-19T17:00:14.414Z,1.73
2023-05-19T17:02:59.639Z,1.80
2023-05-19T17:05:44.781Z,1.90
2023-05-19T17:08:29.824Z,2.03
2023-05-19T17:11:15.075Z,1.52
2023-05-19T17:13:59.927Z,1.50
2023-05-19T17:16:44.785Z,1.80
2023-05-19T17:19:29.679Z,1.70
2023-05-19T17:22:15.121Z,1.40
2023-05-19T17:24:59.916Z,1.50
2023-05-19T17:27:44.947Z,1.60
2023-05-19T17:30:30.295Z,1.58
2023-05-19T17:33:15.495Z,1.58
2023-05-19T17:36:03.715Z,1.85
2023-05-19T17:38:52.090Z,1.75
2023-05-19T17:41:37.002Z,2.65
2023-05-19T17:44:21.878Z,1.73
2023-05-19T17:47:07.981Z,1.70
2023-05-19T17:49:55.505Z,1.48
2023-05-19T17:52:42.929Z,1.50
2023-05-19T17:55:30.226Z,1.77
2023-05-19T17:58:15.529Z,1.67
2023-05-19T18:01:00.829Z,1.95
2023-05-19T18:03:50.146Z,1.70
2023-05-19T18:06:39.251Z,1.73
2023-05-19T18:09:28.581Z,1.85
2023-05-19T18:12:14.696Z,1.50
2023-05-19T18:15:01.292Z,1.60
2023-05-19T18:17:46.281Z,2.00
2023-05-19T18:20:33.097Z,1.80
2023-05-19T18:26:10.613Z,1.70
2023-05-19T18:28:59.755Z,1.58
2023-05-19T18:31:45.673Z,1.60
2023-05-19T18:34:30.674Z,1.80
2023-05-19T18:37:15.552Z,1.83
2023-05-19T18:40:01.385Z,1.60
2023-05-19T18:42:49.131Z,1.83
2023-05-19T18:45:33.998Z,1.70
2023-05-19T18:48:22.112Z,1.80
2023-05-19T18:51:08.347Z,1.80
2023-05-19T18:53:57.587Z,1.75
2023-05-19T18:56:43.351Z,2.00
2023-05-19T18:59:31.435Z,2.00
2023-05-19T19:02:18.481Z,1.67
2023-05-19T19:07:53.947Z,1.67
2023-05-19T19:10:43.846Z,2.05
2023-05-19T19:13:30.746Z,1.63
2023-05-19T19:16:16.516Z,1.85
2023-05-19T19:19:03.693Z,1.80
2023-05-19T19:21:51.219Z,1.60
2023-05-19T19:24:36.974Z,2.08
2023-05-19T19:27:21.976Z,1.90
2023-05-19T19:30:08.646Z,2.15
2023-05-19T19:32:55.560Z,1.92
2023-05-19T19:35:41.142Z,1.65
2023-05-19T19:38:26.856Z,1.85
2023-05-19T19:41:11.839Z,1.80
2023-05-19T19:43:57.415Z,1.95
2023-05-19T19:46:42.397Z,2.30
2023-05-19T19:49:27.245Z,1.70
2023-05-19T19:52:12.182Z,2.08
2023-05-19T19:55:01.464Z,1.80
2023-05-19T19:57:51.549Z,2.33
2023-05-19T20:00:36.782Z,2.20
2023-05-19T20:03:22.189Z,2.10
2023-05-19T20:06:07.955Z,2.05
2023-05-19T20:08:53.515Z,1.90
2023-05-19T20:11:38.683Z,1.85
2023-05-19T20:14:23.896Z,1.70
2023-05-19T20:17:09.263Z,1.60
2023-05-19T20:19:54.701Z,2.00
2023-05-19T20:22:40.351Z,1.95
2023-05-19T20:25:26.282Z,2.10
2023-05-19T20:28:11.546Z,1.88
2023-05-19T20:30:57.007Z,1.80
2023-05-19T20:33:41.740Z,1.92
2023-05-19T20:36:26.665Z,1.67
2023-05-19T20:39:11.716Z,2.00
2023-05-19T20:41:56.707Z,1.65
2023-05-19T20:44:41.563Z,1.88
2023-05-19T20:47:30.302Z,1.92
2023-05-19T20:50:15.960Z,2.25
2023-05-19T20:53:01.572Z,1.75
2023-05-19T20:55:46.915Z,2.30
2023-05-19T20:58:31.977Z,2.90
2023-05-19T21:01:17.023Z,2.13
2023-05-19T21:04:07.009Z,1.90
2023-05-19T21:06:52.301Z,1.70
2023-05-19T21:09:39.156Z,1.83
2023-05-19T21:12:35.981Z,1.88
2023-05-19T21:15:21.961Z,1.73
2023-05-19T21:18:17.070Z,2.03
2023-05-19T21:21:04.863Z,1.83
2023-05-19T21:23:54.014Z,2.10
2023-05-19T21:26:44.304Z,2.10
2023-05-19T21:29:29.154Z,2.00
2023-05-19T21:32:15.933Z,1.90
2023-05-19T21:35:03.919Z,2.00
2023-05-19T21:37:50.282Z,2.00
2023-05-19T21:40:36.344Z,1.98
2023-05-19T21:43:30.611Z,2.00
2023-05-19T21:46:16.480Z,1.75
2023-05-19T21:49:01.420Z,2.38
2023-05-19T21:51:46.333Z,2.15
2023-05-19T21:54:31.330Z,1.77
2023-05-19T21:57:18.019Z,2.00
2023-05-19T22:00:03.581Z,1.90
2023-05-19T22:02:48.475Z,2.10
2023-05-19T22:05:35.608Z,2.30
2023-05-19T22:08:22.313Z,1.88
2023-05-19T22:11:08.211Z,2.00
2023-05-19T22:13:54.691Z,2.20
2023-05-19T22:16:39.704Z,1.85
2023-05-19T22:19:25.185Z,2.13
2023-05-19T22:22:14.086Z,2.00
2023-05-19T22:24:59.696Z,2.35
2023-05-19T22:27:45.119Z,1.80
2023-05-19T22:30:30.660Z,2.10
2023-05-19T22:33:15.802Z,2.05
2023-05-19T22:36:00.678Z,2.00
2023-05-19T22:38:45.745Z,2.25
2023-05-19T22:41:31.399Z,1.98
2023-05-19T22:44:17.454Z,2.00
2023-05-19T22:47:02.564Z,2.03
2023-05-19T22:49:49.964Z,2.35
2023-05-19T22:55:20.285Z,2.30
2023-05-19T22:58:06.619Z,1.90
2023-05-19T23:00:51.507Z,1.80
2023-05-19T23:03:36.709Z,2.08
2023-05-19T23:06:22.120Z,1.98
2023-05-19T23:09:09.199Z,1.90
2023-05-19T23:11:54.539Z,1.83
2023-05-19T23:14:39.716Z,1.70
2023-05-19T23:17:25.488Z,1.95
2023-05-19T23:20:12.848Z,1.80
2023-05-19T23:22:57.852Z,1.75
2023-05-19T23:25:42.811Z,1.75
2023-05-19T23:28:27.753Z,1.90
2023-05-19T23:31:12.963Z,2.15
2023-05-19T23:33:58.040Z,1.70
2023-05-19T23:36:43.967Z,2.08
2023-05-19T23:39:28.723Z,1.50
2023-05-19T23:42:13.607Z,1.70
2023-05-19T23:44:59.109Z,1.73
2023-05-19T23:47:43.877Z,2.00
2023-05-19T23:50:28.818Z,1.70
2023-05-19T23:53:14.025Z,1.65
2023-05-19T23:55:58.882Z,1.70
2023-05-19T23:58:44.889Z,1.70
